Time,TemperatureF,DewpointF,PressureIn,WindDirection,WindDirectionDegrees,WindSpeedMPH,WindSpeedGustMPH,Humidity,HourlyPrecipIn,Conditions,Clouds,dailyrainin,SoftwareType,DateUTC
2013-02-21 00:00:00,36.1,17.9,30.03,NNW,338,5.8,5.8,47,0.00,,,0.00,VWS V14.01,2013-02-21 05:00:00,
2013-02-21 00:05:00,36.0,17.7,30.03,North,0,4.9,4.9,47,0.00,,,0.00,VWS V14.01,2013-02-21 05:05:00,
2013-02-21 00:10:00,35.8,18.0,30.03,NNE,22,6.3,6.3,48,0.00,,,0.00,VWS V14.01,2013-02-21 05:10:00,
2013-02-21 00:15:00,35.8,17.0,30.03,North,0,4.0,5.4,46,0.00,,,0.00,VWS V14.01,2013-02-21 05:15:00,
2013-02-21 00:20:00,35.6,16.9,30.03,NNW,338,4.0,4.0,46,0.00,,,0.00,VWS V14.01,2013-02-21 05:20:00,
2013-02-21 00:25:00,35.6,16.9,30.03,NNW,338,4.0,4.5,46,0.00,,,0.00,VWS V14.01,2013-02-21 05:25:00,
2013-02-21 00:30:00,35.6,16.9,30.03,NNE,22,3.4,3.4,46,0.00,,,0.00,VWS V14.01,2013-02-21 05:30:00,
2013-02-21 00:35:00,35.6,17.4,30.03,North,0,3.8,3.8,47,0.00,,,0.00,VWS V14.01,2013-02-21 05:35:00,
2013-02-21 00:40:00,35.4,17.7,30.03,NNE,22,4.3,4.3,48,0.00,,,0.00,VWS V14.01,2013-02-21 05:40:00,
2013-02-21 00:45:00,35.4,17.7,30.03,NNW,338,3.4,3.4,48,0.00,,,0.00,VWS V14.01,2013-02-21 05:45:00,
2013-02-21 00:50:00,35.4,17.7,30.03,North,0,2.7,2.7,48,0.00,,,0.00,VWS V14.01,2013-02-21 05:50:00,
2013-02-21 00:55:00,35.2,17.5,30.03,North,0,3.6,3.6,48,0.00,,,0.00,VWS V14.01,2013-02-21 05:55:00,
2013-02-21 01:00:00,35.1,17.8,30.03,North,0,2.5,2.7,49,0.00,,,0.00,VWS V14.01,2013-02-21 06:00:00,
2013-02-21 01:05:00,35.1,17.8,30.03,North,0,2.5,2.5,49,0.00,,,0.00,VWS V14.01,2013-02-21 06:05:00,
2013-02-21 01:10:00,35.1,18.3,30.03,North,0,3.6,4.3,50,0.00,,,0.00,VWS V14.01,2013-02-21 06:10:00,
2013-02-21 01:15:00,35.1,18.3,30.03,North,0,3.6,3.6,50,0.00,,,0.00,VWS V14.01,2013-02-21 06:15:00,
2013-02-21 01:20:00,34.9,18.1,30.03,NNE,22,2.7,2.7,50,0.00,,,0.00,VWS V14.01,2013-02-21 06:20:00,
2013-02-21 01:25:00,34.7,17.5,30.03,NNE,22,3.4,3.4,49,0.00,,,0.00,VWS V14.01,2013-02-21 06:25:00,
2013-02-21 01:30:00,34.5,17.3,30.03,NNE,22,3.6,3.8,49,0.00,,,0.00,VWS V14.01,2013-02-21 06:30:00,
2013-02-21 01:35:00,34.5,17.3,30.03,NNE,22,2.9,2.9,49,0.00,,,0.00,VWS V14.01,2013-02-21 06:35:00,
2013-02-21 01:40:00,34.3,17.6,30.03,NNE,22,2.7,2.9,50,0.00,,,0.00,VWS V14.01,2013-02-21 06:40:00,
2013-02-21 01:45:00,34.2,17.5,30.03,NNE,22,2.9,5.8,50,0.00,,,0.00,VWS V14.01,2013-02-21 06:45:00,
2013-02-21 01:50:00,34.0,17.3,30.03,NNE,22,1.6,5.6,50,0.00,,,0.00,VWS V14.01,2013-02-21 06:50:00,
2013-02-21 01:55:00,34.0,16.4,30.03,NNE,22,2.9,3.8,48,0.00,,,0.00,VWS V14.01,2013-02-21 06:55:00,
2013-02-21 02:00:00,33.8,16.2,30.03,NNE,22,2.9,3.1,48,0.00,,,0.00,VWS V14.01,2013-02-21 07:00:00,
2013-02-21 02:05:00,33.6,16.5,30.03,North,0,3.4,3.8,49,0.00,,,0.00,VWS V14.01,2013-02-21 07:05:00,
2013-02-21 02:10:00,33.6,17.0,30.03,NNW,338,4.3,4.3,50,0.00,,,0.00,VWS V14.01,2013-02-21 07:10:00,
2013-02-21 02:15:00,33.6,16.5,30.03,North,0,5.6,5.6,49,0.00,,,0.00,VWS V14.01,2013-02-21 07:15:00,
2013-02-21 02:20:00,33.6,17.0,30.03,NNW,338,3.4,3.6,50,0.00,,,0.00,VWS V14.01,2013-02-21 07:20:00,
2013-02-21 02:25:00,33.4,16.8,30.03,NNW,338,4.3,4.3,50,0.00,,,0.00,VWS V14.01,2013-02-21 07:25:00,
2013-02-21 02:30:00,33.4,16.8,30.03,North,0,2.0,3.6,50,0.00,,,0.00,VWS V14.01,2013-02-21 07:30:00,
2013-02-21 02:35:00,33.3,16.6,30.03,NNW,338,3.1,3.1,50,0.00,,,0.00,VWS V14.01,2013-02-21 07:35:00,
2013-02-21 02:40:00,33.3,16.6,30.03,North,0,3.4,3.8,50,0.00,,,0.00,VWS V14.01,2013-02-21 07:40:00,
2013-02-21 02:45:00,33.3,17.1,30.03,North,0,3.1,3.1,51,0.00,,,0.00,VWS V14.01,2013-02-21 07:45:00,
2013-02-21 02:50:00,33.1,16.9,30.03,North,0,4.3,4.3,51,0.00,,,0.00,VWS V14.01,2013-02-21 07:50:00,
2013-02-21 02:55:00,33.1,16.9,30.03,North,0,4.0,4.3,51,0.00,,,0.00,VWS V14.01,2013-02-21 07:55:00,
2013-02-21 03:00:00,32.9,16.8,30.03,North,0,2.7,2.7,51,0.00,,,0.00,VWS V14.01,2013-02-21 08:00:00,
2013-02-21 03:05:00,32.9,16.3,30.03,North,0,2.9,4.0,50,0.00,,,0.00,VWS V14.01,2013-02-21 08:05:00,
2013-02-21 03:10:00,32.7,16.1,30.03,North,0,3.6,3.6,50,0.00,,,0.00,VWS V14.01,2013-02-21 08:10:00,
2013-02-21 03:15:00,32.7,16.6,30.03,North,0,3.8,4.0,51,0.00,,,0.00,VWS V14.01,2013-02-21 08:15:00,
2013-02-21 03:20:00,32.7,16.1,30.03,North,0,2.5,3.6,50,0.00,,,0.00,VWS V14.01,2013-02-21 08:20:00,
2013-02-21 03:25:00,32.5,16.4,30.03,NNW,338,3.8,4.3,51,0.00,,,0.00,VWS V14.01,2013-02-21 08:25:00,
2013-02-21 03:30:00,32.5,16.4,30.03,NNW,338,2.7,2.7,51,0.00,,,0.00,VWS V14.01,2013-02-21 08:30:00,
2013-02-21 03:35:00,32.4,16.3,30.03,NNW,338,3.8,3.8,51,0.00,,,0.00,VWS V14.01,2013-02-21 08:35:00,
2013-02-21 03:40:00,32.4,16.3,30.03,NNW,338,2.7,2.7,51,0.00,,,0.00,VWS V14.01,2013-02-21 08:40:00,
2013-02-21 03:45:00,32.4,16.3,30.03,North,0,3.6,3.6,51,0.00,,,0.00,VWS V14.01,2013-02-21 08:45:00,
2013-02-21 03:50:00,32.2,16.1,30.03,North,0,4.0,4.0,51,0.00,,,0.00,VWS V14.01,2013-02-21 08:50:00,
2013-02-21 03:55:00,32.2,16.1,30.03,North,0,5.4,5.6,51,0.00,,,0.00,VWS V14.01,2013-02-21 08:55:00,
2013-02-21 04:00:00,32.2,16.1,30.03,NNW,338,2.0,2.5,51,0.00,,,0.00,VWS V14.01,2013-02-21 09:00:00,
2013-02-21 04:05:00,32.0,15.9,30.03,NNW,338,2.0,2.0,51,0.00,,,0.00,VWS V14.01,2013-02-21 09:05:00,
2013-02-21 04:10:00,32.0,15.9,30.03,NNW,338,2.5,2.5,51,0.00,,,0.00,VWS V14.01,2013-02-21 09:10:00,
2013-02-21 04:15:00,32.0,15.9,30.03,NNW,338,2.9,2.9,51,0.00,,,0.00,VWS V14.01,2013-02-21 09:15:00,
2013-02-21 04:20:00,32.0,15.9,30.03,NNW,338,1.6,1.6,51,0.00,,,0.00,VWS V14.01,2013-02-21 09:20:00,
2013-02-21 04:25:00,31.8,15.8,30.03,North,0,1.3,1.3,51,0.00,,,0.00,VWS V14.01,2013-02-21 09:25:00,
2013-02-21 04:30:00,31.6,15.6,30.03,NNW,338,1.6,2.5,51,0.00,,,0.00,VWS V14.01,2013-02-21 09:30:00,
2013-02-21 04:35:00,31.5,15.4,30.03,NNW,338,0.0,0.0,51,0.00,,,0.00,VWS V14.01,2013-02-21 09:35:00,
2013-02-21 04:40:00,31.3,15.3,30.03,NNW,338,0.0,0.0,51,0.00,,,0.00,VWS V14.01,2013-02-21 09:40:00,
2013-02-21 04:45:00,30.9,15.4,30.03,NNW,338,0.0,0.0,52,0.00,,,0.00,VWS V14.01,2013-02-21 09:45:00,
2013-02-21 04:50:00,30.7,15.2,30.03,NNW,338,0.0,1.3,52,0.00,,,0.00,VWS V14.01,2013-02-21 09:50:00,
2013-02-21 04:55:00,30.6,15.5,30.06,NNW,338,1.6,2.0,53,0.00,,,0.00,VWS V14.01,2013-02-21 09:55:00,
2013-02-21 05:00:00,30.4,15.3,30.06,NNW,338,0.0,0.0,53,0.00,,,0.00,VWS V14.01,2013-02-21 10:00:00,
2013-02-21 05:05:00,30.0,15.0,30.06,NNW,338,0.0,0.0,53,0.00,,,0.00,VWS V14.01,2013-02-21 10:05:00,
2013-02-21 05:10:00,29.8,15.2,30.06,NNW,338,0.0,0.0,54,0.00,,,0.00,VWS V14.01,2013-02-21 10:10:00,
2013-02-21 05:15:00,29.5,14.9,30.06,NNW,338,0.0,0.0,54,0.00,,,0.00,VWS V14.01,2013-02-21 10:15:00,
2013-02-21 05:20:00,29.7,15.5,30.06,NNW,338,1.3,1.3,55,0.00,,,0.00,VWS V14.01,2013-02-21 10:20:00,
2013-02-21 05:25:00,29.7,15.5,30.06,NNW,338,0.0,0.0,55,0.00,,,0.00,VWS V14.01,2013-02-21 10:25:00,
2013-02-21 05:30:00,29.5,15.3,30.06,NNW,338,1.6,1.6,55,0.00,,,0.00,VWS V14.01,2013-02-21 10:30:00,
2013-02-21 05:35:00,29.5,15.3,30.06,NNW,338,0.0,0.0,55,0.00,,,0.00,VWS V14.01,2013-02-21 10:35:00,
2013-02-21 05:40:00,29.7,15.9,30.06,NNW,338,2.0,2.0,56,0.00,,,0.00,VWS V14.01,2013-02-21 10:40:00,
2013-02-21 05:45:00,29.7,15.9,30.06,NNW,338,2.7,2.7,56,0.00,,,0.00,VWS V14.01,2013-02-21 10:45:00,
2013-02-21 05:50:00,29.7,15.5,30.06,NNW,338,2.0,2.5,55,0.00,,,0.00,VWS V14.01,2013-02-21 10:50:00,
2013-02-21 05:55:00,29.7,15.9,30.06,NNW,338,1.3,1.3,56,0.00,,,0.00,VWS V14.01,2013-02-21 10:55:00,
2013-02-21 06:00:00,29.7,15.5,30.06,NNW,338,2.0,2.0,55,0.00,,,0.00,VWS V14.01,2013-02-21 11:00:00,
2013-02-21 06:05:00,29.7,15.5,30.06,NNW,338,1.6,1.6,55,0.00,,,0.00,VWS V14.01,2013-02-21 11:05:00,
2013-02-21 06:10:00,29.5,15.3,30.06,NNW,338,2.0,2.0,55,0.00,,,0.00,VWS V14.01,2013-02-21 11:10:00,
2013-02-21 06:15:00,29.5,15.3,30.06,NNW,338,2.2,2.2,55,0.00,,,0.00,VWS V14.01,2013-02-21 11:15:00,
2013-02-21 06:20:00,29.5,15.3,30.06,NNW,338,1.3,1.3,55,0.00,,,0.00,VWS V14.01,2013-02-21 11:20:00,
2013-02-21 06:25:00,29.5,15.7,30.06,NNW,338,1.6,1.6,56,0.00,,,0.00,VWS V14.01,2013-02-21 11:25:00,
2013-02-21 06:30:00,29.5,15.3,30.06,NNW,338,1.6,2.2,55,0.00,,,0.00,VWS V14.01,2013-02-21 11:30:00,
2013-02-21 06:35:00,29.5,15.3,30.06,NNW,338,1.6,2.2,55,0.00,,,0.00,VWS V14.01,2013-02-21 11:35:00,
2013-02-21 06:40:00,29.5,15.3,30.06,NNW,338,2.0,2.0,55,0.00,,,0.00,VWS V14.01,2013-02-21 11:40:00,
2013-02-21 06:45:00,29.3,15.1,30.06,NNW,338,1.6,1.6,55,0.00,,,0.00,VWS V14.01,2013-02-21 11:45:00,
2013-02-21 06:50:00,29.3,15.1,30.06,NNW,338,1.3,1.6,55,0.00,,,0.00,VWS V14.01,2013-02-21 11:50:00,
2013-02-21 06:55:00,29.3,15.1,30.06,NNW,338,1.3,1.3,55,0.00,,,0.00,VWS V14.01,2013-02-21 11:55:00,
2013-02-21 07:00:00,29.3,15.1,30.06,NNW,338,1.6,1.6,55,0.00,,,0.00,VWS V14.01,2013-02-21 12:00:00,
2013-02-21 07:05:00,29.1,15.4,30.06,NNW,338,1.1,1.6,56,0.00,,,0.00,VWS V14.01,2013-02-21 12:05:00,
2013-02-21 07:10:00,28.8,15.1,30.06,NNW,338,0.0,0.0,56,0.00,,,0.00,VWS V14.01,2013-02-21 12:10:00,
2013-02-21 07:15:00,29.1,15.4,30.06,NNW,338,1.6,1.6,56,0.00,,,0.00,VWS V14.01,2013-02-21 12:15:00,
2013-02-21 07:20:00,29.3,15.6,30.06,NNW,338,1.1,1.1,56,0.00,,,0.00,VWS V14.01,2013-02-21 12:20:00,
2013-02-21 07:25:00,29.7,15.9,30.09,NNW,338,0.0,0.0,56,0.00,,,0.00,VWS V14.01,2013-02-21 12:25:00,
2013-02-21 07:30:00,30.2,16.4,30.09,NNW,338,2.0,2.0,56,0.00,,,0.00,VWS V14.01,2013-02-21 12:30:00,
2013-02-21 07:35:00,30.6,16.3,30.09,NNW,338,2.7,3.1,55,0.00,,,0.00,VWS V14.01,2013-02-21 12:35:00,
2013-02-21 07:40:00,31.1,16.8,30.09,NNW,338,3.4,3.4,55,0.00,,,0.00,VWS V14.01,2013-02-21 12:40:00,
2013-02-21 07:45:00,31.3,15.7,30.09,NNW,338,3.6,3.6,52,0.00,,,0.00,VWS V14.01,2013-02-21 12:45:00,
2013-02-21 07:50:00,31.5,15.9,30.09,NNW,338,5.8,5.8,52,0.00,,,0.00,VWS V14.01,2013-02-21 12:50:00,
2013-02-21 07:55:00,31.8,15.8,30.09,NNW,338,2.9,2.9,51,0.00,,,0.00,VWS V14.01,2013-02-21 12:55:00,
2013-02-21 08:00:00,31.8,14.9,30.09,NNW,338,4.3,5.4,49,0.00,,,0.00,VWS V14.01,2013-02-21 13:00:00,
2013-02-21 08:05:00,32.2,15.6,30.09,NNW,338,2.7,3.1,50,0.00,,,0.00,VWS V14.01,2013-02-21 13:05:00,
2013-02-21 08:10:00,32.4,15.8,30.09,NNW,338,2.9,2.9,50,0.00,,,0.00,VWS V14.01,2013-02-21 13:10:00,
2013-02-21 08:15:00,32.4,15.4,30.09,NNW,338,4.0,4.0,49,0.00,,,0.00,VWS V14.01,2013-02-21 13:15:00,
2013-02-21 08:20:00,32.7,15.7,30.09,NNW,338,6.0,6.0,49,0.00,,,0.00,VWS V14.01,2013-02-21 13:20:00,
2013-02-21 08:25:00,32.4,13.9,30.09,NNW,338,4.3,6.3,46,0.00,,,0.00,VWS V14.01,2013-02-21 13:25:00,
2013-02-21 08:30:00,32.5,14.1,30.09,NNW,338,3.4,4.9,46,0.00,,,0.00,VWS V14.01,2013-02-21 13:30:00,
2013-02-21 08:35:00,33.1,14.6,30.09,NNW,338,4.3,4.3,46,0.00,,,0.00,VWS V14.01,2013-02-21 13:35:00,
2013-02-21 08:40:00,33.3,14.7,30.12,NW,315,3.6,3.6,46,0.00,,,0.00,VWS V14.01,2013-02-21 13:40:00,
2013-02-21 08:45:00,33.3,14.2,30.12,NNW,338,4.0,5.6,45,0.00,,,0.00,VWS V14.01,2013-02-21 13:45:00,
2013-02-21 08:50:00,33.1,14.1,30.12,NNW,338,5.6,5.6,45,0.00,,,0.00,VWS V14.01,2013-02-21 13:50:00,
2013-02-21 08:55:00,33.1,14.6,30.12,NNW,338,5.4,5.4,46,0.00,,,0.00,VWS V14.01,2013-02-21 13:55:00,
2013-02-21 09:00:00,33.4,14.9,30.12,North,0,3.4,4.7,46,0.00,,,0.00,VWS V14.01,2013-02-21 14:00:00,
2013-02-21 09:05:00,33.6,14.6,30.12,NNW,338,4.3,4.3,45,0.00,,,0.00,VWS V14.01,2013-02-21 14:05:00,
2013-02-21 09:10:00,34.0,15.4,30.09,NNW,338,3.4,3.4,46,0.00,,,0.00,VWS V14.01,2013-02-21 14:10:00,
2013-02-21 09:15:00,33.8,14.7,30.09,NW,315,3.8,3.8,45,0.00,,,0.00,VWS V14.01,2013-02-21 14:15:00,
2013-02-21 09:20:00,34.0,14.9,30.09,NNW,338,4.9,4.9,45,0.00,,,0.00,VWS V14.01,2013-02-21 14:20:00,
2013-02-21 09:25:00,33.8,14.2,30.12,NNW,338,5.8,5.8,44,0.00,,,0.00,VWS V14.01,2013-02-21 14:25:00,
2013-02-21 09:30:00,33.6,14.1,30.12,NNW,338,4.9,4.9,44,0.00,,,0.00,VWS V14.01,2013-02-21 14:30:00,
2013-02-21 09:35:00,33.4,14.4,30.12,NW,315,4.9,4.9,45,0.00,,,0.00,VWS V14.01,2013-02-21 14:35:00,
2013-02-21 09:40:00,33.3,13.7,30.09,WNW,292,3.8,3.8,44,0.00,,,0.00,VWS V14.01,2013-02-21 14:40:00,
2013-02-21 09:45:00,33.6,14.1,30.09,NNW,338,3.4,5.4,44,0.00,,,0.00,VWS V14.01,2013-02-21 14:45:00,
2013-02-21 09:50:00,34.2,14.5,30.09,NNW,338,3.8,3.8,44,0.00,,,0.00,VWS V14.01,2013-02-21 14:50:00,
2013-02-21 09:55:00,34.0,14.4,30.09,NNW,338,5.8,5.8,44,0.00,,,0.00,VWS V14.01,2013-02-21 14:55:00,
2013-02-21 10:00:00,34.0,14.4,30.09,NNW,338,6.3,6.3,44,0.00,,,0.00,VWS V14.01,2013-02-21 15:00:00,
2013-02-21 10:05:00,34.0,14.4,30.09,NNW,338,6.0,6.0,44,0.00,,,0.00,VWS V14.01,2013-02-21 15:05:00,
2013-02-21 10:10:00,34.7,15.0,30.09,NNW,338,3.6,3.6,44,0.00,,,0.00,VWS V14.01,2013-02-21 15:10:00,
2013-02-21 10:15:00,34.3,14.7,30.09,NW,315,4.3,4.3,44,0.00,,,0.00,VWS V14.01,2013-02-21 15:15:00,
2013-02-21 10:20:00,34.9,15.2,30.09,NNW,338,4.9,4.9,44,0.00,,,0.00,VWS V14.01,2013-02-21 15:20:00,
2013-02-21 10:25:00,34.7,15.0,30.09,WNW,292,3.8,3.8,44,0.00,,,0.00,VWS V14.01,2013-02-21 15:25:00,
2013-02-21 10:30:00,34.9,15.2,30.09,WNW,292,4.9,6.3,44,0.00,,,0.00,VWS V14.01,2013-02-21 15:30:00,
2013-02-21 10:35:00,34.9,15.2,30.09,WNW,292,5.4,6.0,44,0.00,,,0.00,VWS V14.01,2013-02-21 15:35:00,
2013-02-21 10:40:00,35.2,15.5,30.09,NNW,338,2.5,3.1,44,0.00,,,0.00,VWS V14.01,2013-02-21 15:40:00,
2013-02-21 10:45:00,35.1,14.8,30.09,WNW,292,6.7,6.7,43,0.00,,,0.00,VWS V14.01,2013-02-21 15:45:00,
2013-02-21 10:50:00,34.9,14.7,30.09,NW,315,3.4,6.0,43,0.00,,,0.00,VWS V14.01,2013-02-21 15:50:00,
2013-02-21 10:55:00,35.4,15.2,30.09,NNW,338,3.1,3.1,43,0.00,,,0.00,VWS V14.01,2013-02-21 15:55:00,
2013-02-21 11:00:00,35.8,15.5,30.09,WNW,292,2.7,2.9,43,0.00,,,0.00,VWS V14.01,2013-02-21 16:00:00,
2013-02-21 11:05:00,35.8,15.5,30.09,NW,315,4.9,5.6,43,0.00,,,0.00,VWS V14.01,2013-02-21 16:05:00,
2013-02-21 11:10:00,36.3,16.0,30.09,NW,315,2.9,2.9,43,0.00,,,0.00,VWS V14.01,2013-02-21 16:10:00,
2013-02-21 11:15:00,36.3,16.0,30.09,NNW,338,3.4,3.4,43,0.00,,,0.00,VWS V14.01,2013-02-21 16:15:00,
2013-02-21 11:20:00,36.3,16.0,30.09,WNW,292,3.4,4.0,43,0.00,,,0.00,VWS V14.01,2013-02-21 16:20:00,
2013-02-21 11:25:00,36.1,15.8,30.09,NW,315,2.9,7.6,43,0.00,,,0.00,VWS V14.01,2013-02-21 16:25:00,
2013-02-21 11:30:00,37.6,17.1,30.09,NW,315,6.3,6.3,43,0.00,,,0.00,VWS V14.01,2013-02-21 16:30:00,
2013-02-21 11:35:00,37.2,16.8,30.09,WNW,292,5.6,5.6,43,0.00,,,0.00,VWS V14.01,2013-02-21 16:35:00,
2013-02-21 11:40:00,37.2,16.8,30.09,NNW,338,7.4,7.4,43,0.00,,,0.00,VWS V14.01,2013-02-21 16:40:00,
2013-02-21 11:45:00,37.0,16.6,30.09,NNW,338,5.8,5.8,43,0.00,,,0.00,VWS V14.01,2013-02-21 16:45:00,
2013-02-21 11:50:00,36.9,16.5,30.09,NW,315,4.3,4.3,43,0.00,,,0.00,VWS V14.01,2013-02-21 16:50:00,
2013-02-21 11:55:00,37.2,16.8,30.09,NW,315,4.3,4.3,43,0.00,,,0.00,VWS V14.01,2013-02-21 16:55:00,
2013-02-21 12:00:00,37.4,16.4,30.09,NNW,338,4.0,5.8,42,0.00,,,0.00,VWS V14.01,2013-02-21 17:00:00,
2013-02-21 12:05:00,38.1,17.6,30.09,WNW,292,4.0,4.0,43,0.00,,,0.00,VWS V14.01,2013-02-21 17:05:00,
2013-02-21 12:10:00,38.3,17.2,30.06,WNW,292,7.4,7.4,42,0.00,,,0.00,VWS V14.01,2013-02-21 17:10:00,
2013-02-21 12:15:00,38.5,17.4,30.06,NNW,338,4.3,4.3,42,0.00,,,0.00,VWS V14.01,2013-02-21 17:15:00,
2013-02-21 12:20:00,38.7,17.0,30.06,WNW,292,7.4,7.4,41,0.00,,,0.00,VWS V14.01,2013-02-21 17:20:00,
2013-02-21 12:25:00,38.1,16.5,30.06,NNW,338,4.9,4.9,41,0.00,,,0.00,VWS V14.01,2013-02-21 17:25:00,
2013-02-21 12:30:00,38.8,17.2,30.06,NNW,338,6.5,6.5,41,0.00,,,0.00,VWS V14.01,2013-02-21 17:30:00,
2013-02-21 12:35:00,39.0,17.3,30.06,NNW,338,5.4,5.4,41,0.00,,,0.00,VWS V14.01,2013-02-21 17:35:00,
2013-02-21 12:41:00,38.8,17.2,30.06,NW,315,12.8,12.8,41,0.00,,,0.00,VWS V14.01,2013-02-21 17:41:00,
2013-02-21 12:46:00,39.6,17.8,30.06,NW,315,6.0,6.0,41,0.00,,,0.00,VWS V14.01,2013-02-21 17:46:00,
2013-02-21 12:51:00,39.4,17.1,30.06,WNW,292,6.9,6.9,40,0.00,,,0.00,VWS V14.01,2013-02-21 17:51:00,
2013-02-21 12:56:00,39.0,16.8,30.06,NNW,338,3.8,8.1,40,0.00,,,0.00,VWS V14.01,2013-02-21 17:56:00,
2013-02-21 13:01:00,39.4,17.1,30.06,NNW,338,8.1,8.1,40,0.00,,,0.00,VWS V14.01,2013-02-21 18:01:00,
2013-02-21 13:06:00,39.6,17.2,30.06,WNW,292,12.3,12.3,40,0.00,,,0.00,VWS V14.01,2013-02-21 18:06:00,
2013-02-21 13:11:00,39.7,17.4,30.03,WNW,292,8.5,8.5,40,0.00,,,0.00,VWS V14.01,2013-02-21 18:11:00,
2013-02-21 13:16:00,40.1,17.7,30.03,NNW,338,7.8,7.8,40,0.00,,,0.00,VWS V14.01,2013-02-21 18:16:00,
2013-02-21 13:21:00,40.5,17.5,30.03,WNW,292,8.1,8.7,39,0.00,,,0.00,VWS V14.01,2013-02-21 18:21:00,
2013-02-21 13:26:00,40.5,18.1,30.06,WNW,292,4.3,4.9,40,0.00,,,0.00,VWS V14.01,2013-02-21 18:26:00,
2013-02-21 13:31:00,41.0,18.5,30.06,WNW,292,4.7,4.7,40,0.00,,,0.00,VWS V14.01,2013-02-21 18:31:00,
2013-02-21 13:36:00,40.5,18.1,30.06,NNW,338,5.4,5.4,40,0.00,,,0.00,VWS V14.01,2013-02-21 18:36:00,
2013-02-21 13:41:00,40.5,17.5,30.03,NNW,338,6.9,6.9,39,0.00,,,0.00,VWS V14.01,2013-02-21 18:41:00,
2013-02-21 13:46:00,40.3,17.9,30.03,WNW,292,6.5,7.4,40,0.00,,,0.00,VWS V14.01,2013-02-21 18:46:00,
2013-02-21 13:51:00,40.5,18.1,30.03,NW,315,4.5,4.5,40,0.00,,,0.00,VWS V14.01,2013-02-21 18:51:00,
2013-02-21 13:56:00,41.0,18.0,30.03,NNW,338,3.1,4.3,39,0.00,,,0.00,VWS V14.01,2013-02-21 18:56:00,
2013-02-21 14:01:00,41.5,18.4,30.03,NW,315,8.1,11.0,39,0.00,,,0.00,VWS V14.01,2013-02-21 19:01:00,
2013-02-21 14:06:00,41.0,18.0,30.03,WNW,292,6.0,8.7,39,0.00,,,0.00,VWS V14.01,2013-02-21 19:06:00,
2013-02-21 14:11:00,41.2,18.1,30.03,NW,315,5.8,7.6,39,0.00,,,0.00,VWS V14.01,2013-02-21 19:11:00,
2013-02-21 14:16:00,41.5,18.4,30.03,WNW,292,3.1,3.1,39,0.00,,,0.00,VWS V14.01,2013-02-21 19:16:00,
2013-02-21 14:21:00,41.5,18.4,30.03,NNW,338,5.4,5.4,39,0.00,,,0.00,VWS V14.01,2013-02-21 19:21:00,
2013-02-21 14:26:00,41.5,18.4,30.03,WNW,292,8.5,8.5,39,0.00,,,0.00,VWS V14.01,2013-02-21 19:26:00,
2013-02-21 14:31:00,42.1,18.9,30.03,WNW,292,8.5,8.5,39,0.00,,,0.00,VWS V14.01,2013-02-21 19:31:00,
2013-02-21 14:36:00,41.5,18.4,30.03,NW,315,3.8,6.7,39,0.00,,,0.00,VWS V14.01,2013-02-21 19:36:00,
2013-02-21 14:41:00,41.7,18.6,30.03,NW,315,3.4,10.1,39,0.00,,,0.00,VWS V14.01,2013-02-21 19:41:00,
2013-02-21 14:46:00,41.7,18.6,30.03,NNW,338,7.4,7.4,39,0.00,,,0.00,VWS V14.01,2013-02-21 19:46:00,
2013-02-21 14:51:00,41.5,18.4,30.03,WNW,292,8.1,8.1,39,0.00,,,0.00,VWS V14.01,2013-02-21 19:51:00,
2013-02-21 14:56:00,41.5,18.4,30.03,NNW,338,6.3,6.3,39,0.00,,,0.00,VWS V14.01,2013-02-21 19:56:00,
2013-02-21 15:01:00,41.7,18.6,30.03,NNW,338,5.4,5.4,39,0.00,,,0.00,VWS V14.01,2013-02-21 20:01:00,
2013-02-21 15:06:00,41.9,18.8,30.03,NNW,338,6.3,6.3,39,0.00,,,0.00,VWS V14.01,2013-02-21 20:06:00,
2013-02-21 15:11:00,42.1,18.9,30.03,NNW,338,6.5,7.6,39,0.00,,,0.00,VWS V14.01,2013-02-21 20:11:00,
2013-02-21 15:16:00,42.3,19.1,30.03,WNW,292,5.6,6.5,39,0.00,,,0.00,VWS V14.01,2013-02-21 20:16:00,
2013-02-21 15:21:00,42.4,19.2,30.03,WNW,292,4.9,4.9,39,0.00,,,0.00,VWS V14.01,2013-02-21 20:21:00,
2013-02-21 15:26:00,42.4,19.2,30.03,NNW,338,8.5,8.5,39,0.00,,,0.00,VWS V14.01,2013-02-21 20:26:00,
2013-02-21 15:31:00,42.8,19.6,30.03,WNW,292,7.2,7.2,39,0.00,,,0.00,VWS V14.01,2013-02-21 20:31:00,
2013-02-21 15:36:00,42.8,19.6,30.03,NW,315,5.4,6.3,39,0.00,,,0.00,VWS V14.01,2013-02-21 20:36:00,
2013-02-21 15:41:00,42.3,19.1,30.03,NNW,338,7.4,7.4,39,0.00,,,0.00,VWS V14.01,2013-02-21 20:41:00,
2013-02-21 15:46:00,42.4,19.2,30.03,NNW,338,6.3,6.3,39,0.00,,,0.00,VWS V14.01,2013-02-21 20:46:00,
2013-02-21 15:51:00,42.6,19.4,30.03,NNW,338,4.0,4.0,39,0.00,,,0.00,VWS V14.01,2013-02-21 20:51:00,
2013-02-21 15:56:00,42.4,19.2,30.03,NW,315,5.4,5.4,39,0.00,,,0.00,VWS V14.01,2013-02-21 20:56:00,
2013-02-21 16:01:00,42.4,19.2,30.03,NW,315,5.6,7.4,39,0.00,,,0.00,VWS V14.01,2013-02-21 21:01:00,
2013-02-21 16:06:00,42.4,19.2,30.03,NW,315,6.5,7.6,39,0.00,,,0.00,VWS V14.01,2013-02-21 21:06:00,
2013-02-21 16:11:00,42.8,19.6,30.03,NW,315,5.8,5.8,39,0.00,,,0.00,VWS V14.01,2013-02-21 21:11:00,
2013-02-21 16:16:00,42.8,19.6,30.03,NNW,338,2.7,6.5,39,0.00,,,0.00,VWS V14.01,2013-02-21 21:16:00,
2013-02-21 16:21:00,42.8,19.6,30.03,WNW,292,3.8,3.8,39,0.00,,,0.00,VWS V14.01,2013-02-21 21:21:00,
2013-02-21 16:26:00,42.6,20.0,30.03,NNW,338,3.6,3.6,40,0.00,,,0.00,VWS V14.01,2013-02-21 21:26:00,
2013-02-21 16:31:00,43.0,19.7,30.03,ENE,68,3.8,3.8,39,0.00,,,0.00,VWS V14.01,2013-02-21 21:31:00,
2013-02-21 16:36:00,42.6,20.0,30.03,NNE,22,2.0,2.5,40,0.00,,,0.00,VWS V14.01,2013-02-21 21:36:00,
2013-02-21 16:41:00,42.6,20.6,30.03,NNE,22,2.5,3.6,41,0.00,,,0.00,VWS V14.01,2013-02-21 21:41:00,
2013-02-21 16:46:00,42.8,20.2,30.03,NNE,22,2.5,2.5,40,0.00,,,0.00,VWS V14.01,2013-02-21 21:46:00,
2013-02-21 16:51:00,42.8,19.6,30.03,NNW,338,3.4,3.4,39,0.00,,,0.00,VWS V14.01,2013-02-21 21:51:00,
2013-02-21 16:56:00,42.8,19.6,30.03,NNW,338,2.9,2.9,39,0.00,,,0.00,VWS V14.01,2013-02-21 21:56:00,
2013-02-21 17:01:00,43.0,19.7,30.03,North,0,1.1,1.6,39,0.00,,,0.00,VWS V14.01,2013-02-21 22:01:00,
2013-02-21 17:06:00,43.0,20.3,30.03,WNW,292,2.7,2.9,40,0.00,,,0.00,VWS V14.01,2013-02-21 22:06:00,
2013-02-21 17:11:00,43.2,19.9,30.03,NNW,338,2.5,3.4,39,0.00,,,0.00,VWS V14.01,2013-02-21 22:11:00,
2013-02-21 17:16:00,43.2,19.9,30.03,NNW,338,2.9,2.9,39,0.00,,,0.00,VWS V14.01,2013-02-21 22:16:00,
2013-02-21 17:21:00,43.2,19.9,30.03,NNW,338,3.1,3.1,39,0.00,,,0.00,VWS V14.01,2013-02-21 22:21:00,
2013-02-21 17:26:00,43.0,19.7,30.03,NNW,338,2.7,2.7,39,0.00,,,0.00,VWS V14.01,2013-02-21 22:26:00,
2013-02-21 17:31:00,43.0,19.7,30.03,NNW,338,3.4,3.4,39,0.00,,,0.00,VWS V14.01,2013-02-21 22:31:00,
2013-02-21 17:36:00,42.8,19.6,30.03,NNW,338,2.9,4.0,39,0.00,,,0.00,VWS V14.01,2013-02-21 22:36:00,
2013-02-21 17:41:00,42.8,20.2,30.06,NNW,338,2.9,3.8,40,0.00,,,0.00,VWS V14.01,2013-02-21 22:41:00,
2013-02-21 17:46:00,42.6,20.0,30.06,NNW,338,2.9,2.9,40,0.00,,,0.00,VWS V14.01,2013-02-21 22:46:00,
2013-02-21 17:51:00,42.4,19.8,30.06,NNW,338,3.1,3.1,40,0.00,,,0.00,VWS V14.01,2013-02-21 22:51:00,
2013-02-21 17:56:00,42.4,19.8,30.06,NNW,338,2.5,2.5,40,0.00,,,0.00,VWS V14.01,2013-02-21 22:56:00,
2013-02-21 18:01:00,42.3,19.7,30.06,NNW,338,3.6,3.8,40,0.00,,,0.00,VWS V14.01,2013-02-21 23:01:00,
2013-02-21 18:06:00,42.3,19.7,30.06,NNW,338,3.4,3.4,40,0.00,,,0.00,VWS V14.01,2013-02-21 23:06:00,
2013-02-21 18:11:00,42.3,19.7,30.06,NNW,338,2.2,4.0,40,0.00,,,0.00,VWS V14.01,2013-02-21 23:11:00,
2013-02-21 18:16:00,42.1,19.5,30.06,NNW,338,3.1,3.1,40,0.00,,,0.00,VWS V14.01,2013-02-21 23:16:00,
2013-02-21 18:21:00,41.9,19.4,30.06,NNW,338,3.4,3.4,40,0.00,,,0.00,VWS V14.01,2013-02-21 23:21:00,
2013-02-21 18:26:00,42.1,19.5,30.09,NNW,338,3.8,3.8,40,0.00,,,0.00,VWS V14.01,2013-02-21 23:26:00,
2013-02-21 18:31:00,41.9,19.4,30.09,NNW,338,3.4,3.6,40,0.00,,,0.00,VWS V14.01,2013-02-21 23:31:00,
2013-02-21 18:36:00,41.7,20.3,30.09,North,0,3.4,3.4,42,0.00,,,0.00,VWS V14.01,2013-02-21 23:36:00,
2013-02-21 18:41:00,41.5,21.3,30.09,NNW,338,2.7,2.7,44,0.00,,,0.00,VWS V14.01,2013-02-21 23:41:00,
2013-02-21 18:46:00,41.4,22.1,30.09,NNW,338,2.7,2.7,46,0.00,,,0.00,VWS V14.01,2013-02-21 23:46:00,
2013-02-21 18:51:00,41.2,22.0,30.09,NNW,338,2.5,2.5,46,0.00,,,0.00,VWS V14.01,2013-02-21 23:51:00,
2013-02-21 18:56:00,41.0,22.3,30.09,NNW,338,3.1,3.1,47,0.00,,,0.00,VWS V14.01,2013-02-21 23:56:00,
2013-02-21 19:01:00,40.8,23.1,30.09,NNW,338,3.1,3.1,49,0.00,,,0.00,VWS V14.01,2013-02-22 00:01:00,
2013-02-21 19:06:00,40.8,22.7,30.09,NNW,338,3.4,3.4,48,0.00,,,0.00,VWS V14.01,2013-02-22 00:06:00,
2013-02-21 19:11:00,40.8,22.7,30.09,North,0,2.0,2.0,48,0.00,,,0.00,VWS V14.01,2013-02-22 00:11:00,
2013-02-21 19:16:00,40.6,23.0,30.09,NNW,338,2.7,2.7,49,0.00,,,0.00,VWS V14.01,2013-02-22 00:16:00,
2013-02-21 19:21:00,40.6,23.0,30.09,North,0,3.1,3.4,49,0.00,,,0.00,VWS V14.01,2013-02-22 00:21:00,
2013-02-21 19:26:00,40.6,23.0,30.12,NNW,338,3.6,3.6,49,0.00,,,0.00,VWS V14.01,2013-02-22 00:26:00,
2013-02-21 19:31:00,40.8,23.1,30.12,North,0,3.8,3.8,49,0.00,,,0.00,VWS V14.01,2013-02-22 00:31:00,
2013-02-21 19:36:00,40.6,23.0,30.12,NNW,338,2.9,3.6,49,0.00,,,0.00,VWS V14.01,2013-02-22 00:36:00,
2013-02-21 19:41:00,40.6,23.0,30.12,NNW,338,3.6,3.6,49,0.00,,,0.00,VWS V14.01,2013-02-22 00:41:00,
2013-02-21 19:46:00,40.6,23.0,30.12,North,0,3.6,3.6,49,0.00,,,0.00,VWS V14.01,2013-02-22 00:46:00,
2013-02-21 19:51:00,40.6,23.0,30.12,North,0,4.9,4.9,49,0.00,,,0.00,VWS V14.01,2013-02-22 00:51:00,
2013-02-21 19:56:00,40.6,23.0,30.12,North,0,4.3,5.4,49,0.00,,,0.00,VWS V14.01,2013-02-22 00:56:00,
2013-02-21 20:01:00,40.5,22.8,30.12,North,0,3.4,3.4,49,0.00,,,0.00,VWS V14.01,2013-02-22 01:01:00,
2013-02-21 20:06:00,40.5,22.8,30.12,North,0,2.7,2.7,49,0.00,,,0.00,VWS V14.01,2013-02-22 01:06:00,
2013-02-21 20:11:00,40.5,22.3,30.12,North,0,4.9,6.3,48,0.00,,,0.00,VWS V14.01,2013-02-22 01:11:00,
2013-02-21 20:17:00,40.5,22.3,30.12,NNW,338,4.9,4.9,48,0.00,,,0.00,VWS V14.01,2013-02-22 01:17:00,
2013-02-21 20:22:00,40.5,22.3,30.12,North,0,4.7,4.7,48,0.00,,,0.00,VWS V14.01,2013-02-22 01:22:00,
2013-02-21 20:27:00,40.3,21.7,30.12,North,0,3.4,3.4,47,0.00,,,0.00,VWS V14.01,2013-02-22 01:27:00,
2013-02-21 20:32:00,40.5,21.8,30.12,NE,45,5.6,5.6,47,0.00,,,0.00,VWS V14.01,2013-02-22 01:32:00,
2013-02-21 20:37:00,40.3,21.7,30.12,North,0,4.7,4.7,47,0.00,,,0.00,VWS V14.01,2013-02-22 01:37:00,
2013-02-21 20:42:00,40.3,21.7,30.12,NNE,22,3.8,3.8,47,0.00,,,0.00,VWS V14.01,2013-02-22 01:42:00,
2013-02-21 20:47:00,40.1,21.0,30.12,North,0,4.9,4.9,46,0.00,,,0.00,VWS V14.01,2013-02-22 01:47:00,
2013-02-21 20:52:00,40.1,21.5,30.12,North,0,3.6,3.6,47,0.00,,,0.00,VWS V14.01,2013-02-22 01:52:00,
2013-02-21 20:57:00,39.9,20.8,30.15,NNE,22,5.4,5.4,46,0.00,,,0.00,VWS V14.01,2013-02-22 01:57:00,
2013-02-21 21:02:00,39.9,20.3,30.15,NNE,22,3.8,3.8,45,0.00,,,0.00,VWS V14.01,2013-02-22 02:02:00,
2013-02-21 21:07:00,39.7,20.1,30.15,North,0,4.0,5.4,45,0.00,,,0.00,VWS V14.01,2013-02-22 02:07:00,
2013-02-21 21:12:00,39.7,20.1,30.15,North,0,5.6,5.6,45,0.00,,,0.00,VWS V14.01,2013-02-22 02:12:00,
2013-02-21 21:17:00,39.7,20.1,30.15,North,0,4.0,4.3,45,0.00,,,0.00,VWS V14.01,2013-02-22 02:17:00,
2013-02-21 21:22:00,39.6,20.0,30.15,NNE,22,4.3,4.3,45,0.00,,,0.00,VWS V14.01,2013-02-22 02:22:00,
2013-02-21 21:27:00,39.6,20.0,30.15,North,0,5.6,5.6,45,0.00,,,0.00,VWS V14.01,2013-02-22 02:27:00,
2013-02-21 21:32:00,39.6,20.0,30.15,North,0,5.8,5.8,45,0.00,,,0.00,VWS V14.01,2013-02-22 02:32:00,
2013-02-21 21:37:00,39.6,20.0,30.15,NNW,338,4.9,4.9,45,0.00,,,0.00,VWS V14.01,2013-02-22 02:37:00,
2013-02-21 21:42:00,39.6,19.5,30.15,NNE,22,5.8,5.8,44,0.00,,,0.00,VWS V14.01,2013-02-22 02:42:00,
2013-02-21 21:47:00,39.6,19.5,30.15,NNE,22,5.6,5.8,44,0.00,,,0.00,VWS V14.01,2013-02-22 02:47:00,
2013-02-21 21:52:00,39.4,18.8,30.15,NNW,338,3.1,7.4,43,0.00,,,0.00,VWS V14.01,2013-02-22 02:52:00,
2013-02-21 21:57:00,39.4,19.3,30.15,North,0,5.4,5.4,44,0.00,,,0.00,VWS V14.01,2013-02-22 02:57:00,
2013-02-21 22:02:00,39.2,18.6,30.15,North,0,4.3,4.3,43,0.00,,,0.00,VWS V14.01,2013-02-22 03:02:00,
2013-02-21 22:07:00,39.2,19.1,30.15,North,0,3.4,4.9,44,0.00,,,0.00,VWS V14.01,2013-02-22 03:07:00,
2013-02-21 22:12:00,39.2,19.1,30.15,North,0,4.0,4.3,44,0.00,,,0.00,VWS V14.01,2013-02-22 03:12:00,
2013-02-21 22:17:00,39.0,19.5,30.15,NNW,338,4.9,6.0,45,0.00,,,0.00,VWS V14.01,2013-02-22 03:17:00,
2013-02-21 22:22:00,39.0,20.0,30.15,North,0,4.3,6.0,46,0.00,,,0.00,VWS V14.01,2013-02-22 03:22:00,
2013-02-21 22:27:00,39.0,21.0,30.15,North,0,4.7,4.7,48,0.00,,,0.00,VWS V14.01,2013-02-22 03:27:00,
2013-02-21 22:32:00,38.8,21.3,30.15,NE,45,2.9,4.0,49,0.00,,,0.00,VWS V14.01,2013-02-22 03:32:00,
2013-02-21 22:37:00,38.8,20.8,30.15,North,0,4.9,4.9,48,0.00,,,0.00,VWS V14.01,2013-02-22 03:37:00,
2013-02-21 22:42:00,38.8,19.8,30.15,NNE,22,4.3,5.4,46,0.00,,,0.00,VWS V14.01,2013-02-22 03:42:00,
2013-02-21 22:47:00,38.8,20.4,30.15,NNE,22,3.8,3.8,47,0.00,,,0.00,VWS V14.01,2013-02-22 03:47:00,
2013-02-21 22:52:00,38.8,20.4,30.15,North,0,5.6,5.6,47,0.00,,,0.00,VWS V14.01,2013-02-22 03:52:00,
2013-02-21 22:57:00,38.7,20.2,30.18,NNE,22,3.4,3.4,47,0.00,,,0.00,VWS V14.01,2013-02-22 03:57:00,
2013-02-21 23:02:00,38.7,21.2,30.18,North,0,4.3,4.3,49,0.00,,,0.00,VWS V14.01,2013-02-22 04:02:00,
2013-02-21 23:07:00,38.7,21.2,30.18,North,0,3.6,3.8,49,0.00,,,0.00,VWS V14.01,2013-02-22 04:07:00,
2013-02-21 23:12:00,38.7,21.2,30.18,North,0,3.8,3.8,49,0.00,,,0.00,VWS V14.01,2013-02-22 04:12:00,
2013-02-21 23:17:00,38.5,21.0,30.18,NNE,22,3.6,3.6,49,0.00,,,0.00,VWS V14.01,2013-02-22 04:17:00,
2013-02-21 23:22:00,38.5,21.5,30.18,NNE,22,2.9,4.5,50,0.00,,,0.00,VWS V14.01,2013-02-22 04:22:00,
2013-02-21 23:27:00,38.5,21.9,30.15,North,0,3.4,6.0,51,0.00,,,0.00,VWS V14.01,2013-02-22 04:27:00,
2013-02-21 23:32:00,38.5,21.9,30.15,North,0,6.5,6.5,51,0.00,,,0.00,VWS V14.01,2013-02-22 04:32:00,
2013-02-21 23:37:00,38.5,21.5,30.15,NNW,338,5.4,5.4,50,0.00,,,0.00,VWS V14.01,2013-02-22 04:37:00,
2013-02-21 23:42:00,38.3,20.8,30.15,NNE,22,3.4,10.1,49,0.00,,,0.00,VWS V14.01,2013-02-22 04:42:00,
2013-02-21 23:47:00,38.3,21.3,30.15,NNE,22,3.1,5.6,50,0.00,,,0.00,VWS V14.01,2013-02-22 04:47:00,
2013-02-21 23:52:00,38.3,21.3,30.15,NNE,22,6.9,6.9,50,0.00,,,0.00,VWS V14.01,2013-02-22 04:52:00,
2013-02-21 23:57:00,38.1,21.1,30.18,NNW,338,2.9,4.0,50,0.00,,,0.00,VWS V14.01,2013-02-22 04:57:00,